Time;durP1;ratioP1;P1;durP2;ratioP2;P2;SDS_P1;SDS_P2;PMS_P1;PMS_P2;Temp;Humidity;BMP_temperature;BMP_pressure;BME280_temperature;BME280_humidity;BME280_pressure;Samples;Min_cycle;Max_cycle;Signal;HPM_P1;HPM_P2
2024/03/04 00:00:26;;;;;;;10.40;7.75;;;;;;;8.71;63.03;95304.00;4902116;29;20051;-79
2024/03/04 00:02:53;;;;;;;11.63;8.35;;;;;;;8.63;62.68;95313.59;4900749;29;20063;-79
2024/03/04 00:05:21;;;;;;;12.73;6.95;;;;;;;8.48;63.35;95312.19;4900325;29;20064;-79
2024/03/04 00:07:49;;;;;;;10.20;6.95;;;;;;;8.38;63.52;95320.38;4900871;29;20057;-78
2024/03/04 00:10:16;;;;;;;9.35;6.70;;;;;;;8.21;63.75;95323.34;4900901;29;20136;-79
2024/03/04 00:12:45;;;;;;;9.80;6.47;;;;;;;8.05;63.97;95328.91;4900684;29;20425;-79
2024/03/04 00:15:13;;;;;;;13.07;7.35;;;;;;;7.90;64.58;95330.88;4900448;29;20100;-79
2024/03/04 00:17:42;;;;;;;14.05;7.43;;;;;;;7.75;65.06;95339.63;4900585;29;20056;-79
2024/03/04 00:20:11;;;;;;;11.38;7.18;;;;;;;7.64;65.21;95347.97;4900653;29;20048;-79
2024/03/04 00:22:42;;;;;;;12.75;6.93;;;;;;;7.57;65.52;95352.34;4901037;29;20056;-78
2024/03/04 00:25:14;;;;;;;11.23;7.28;;;;;;;7.52;65.84;95363.28;4900840;29;20478;-79
2024/03/04 00:27:42;;;;;;;10.82;6.45;;;;;;;7.49;66.08;95365.47;4900881;29;20135;-79
2024/03/04 00:30:10;;;;;;;10.20;6.00;;;;;;;7.47;66.13;95372.63;4900222;29;20080;-79
2024/03/04 00:32:38;;;;;;;9.18;6.15;;;;;;;7.42;66.06;95371.41;4900266;29;20112;-79
2024/03/04 00:35:09;;;;;;;9.02;6.18;;;;;;;7.42;66.76;95371.41;4899989;29;20053;-78
2024/03/04 00:37:36;;;;;;;10.75;6.95;;;;;;;7.47;66.58;95367.44;4899725;29;20116;-79
2024/03/04 00:40:06;;;;;;;9.57;6.15;;;;;;;7.47;66.20;95378.63;4899514;29;20072;-79
2024/03/04 00:42:33;;;;;;;8.00;5.63;;;;;;;7.48;66.63;95374.22;4899206;29;20056;-79
2024/03/04 00:45:02;;;;;;;15.32;5.82;;;;;;;7.47;66.21;95368.25;4899264;29;20072;-79
2024/03/04 00:47:30;;;;;;;10.48;5.22;;;;;;;7.46;66.25;95373.66;4900100;29;20135;-79
2024/03/04 00:49:57;;;;;;;8.45;5.60;;;;;;;7.45;66.63;95367.63;4899956;29;20100;-79
2024/03/04 00:52:26;;;;;;;8.45;5.72;;;;;;;7.46;66.64;95376.25;4899762;29;20543;-79
2024/03/04 00:54:54;;;;;;;8.23;5.63;;;;;;;7.46;66.87;95371.06;4898824;29;20083;-79
2024/03/04 00:57:22;;;;;;;7.40;5.53;;;;;;;7.46;66.63;95378.84;4899714;29;20063;-79
2024/03/04 00:59:49;;;;;;;8.43;5.18;;;;;;;7.43;66.86;95375.63;4899958;29;20428;-79
2024/03/04 01:02:17;;;;;;;8.93;5.18;;;;;;;7.41;66.90;95382.81;4899849;29;20357;-79
2024/03/04 01:04:45;;;;;;;5.90;4.50;;;;;;;7.43;67.25;95382.59;4943583;23;20059;-78
2024/03/04 01:07:14;;;;;;;7.32;4.50;;;;;;;7.53;67.71;95393.44;4929538;29;20074;-79
2024/03/04 01:09:43;;;;;;;7.30;5.00;;;;;;;7.69;67.56;95387.09;4929065;29;20564;-80
2024/03/04 01:12:11;;;;;;;9.02;5.47;;;;;;;7.84;67.14;95389.56;4929680;29;20500;-79
2024/03/04 01:14:39;;;;;;;7.80;5.53;;;;;;;7.92;66.58;95388.63;4929532;29;20052;-79
2024/03/04 01:17:12;;;;;;;6.53;5.00;;;;;;;7.97;66.36;95394.81;4928932;29;20052;-80
2024/03/04 01:19:45;;;;;;;7.40;5.07;;;;;;;7.97;65.78;95392.22;4926979;29;20071;-79
2024/03/04 01:22:14;;;;;;;6.28;4.53;;;;;;;7.94;66.90;95400.41;4925948;29;20059;-78
2024/03/04 01:24:44;;;;;;;6.47;5.07;;;;;;;8.00;66.95;95404.00;4925635;29;20055;-78
2024/03/04 01:27:12;;;;;;;8.38;4.93;;;;;;;8.00;66.24;95409.19;4926189;29;20059;-78
2024/03/04 01:29:41;;;;;;;7.45;5.18;;;;;;;8.02;66.63;95409.81;4925985;29;20052;-78
2024/03/04 01:32:10;;;;;;;7.03;5.35;;;;;;;8.00;65.76;95410.00;4926521;29;20424;-79
2024/03/04 01:34:39;;;;;;;7.75;5.75;;;;;;;7.93;66.06;95410.97;4928050;29;20568;-82
2024/03/04 01:37:06;;;;;;;9.35;6.05;;;;;;;7.87;66.50;95412.56;4921357;29;20052;-79
2024/03/04 01:39:35;;;;;;;10.90;6.72;;;;;;;7.85;66.73;95419.75;4916106;29;20138;-80
2024/03/04 01:42:04;;;;;;;9.98;7.32;;;;;;;7.88;66.91;95426.34;4927164;29;20056;-79
2024/03/04 01:44:33;;;;;;;8.80;6.97;;;;;;;7.95;67.00;95422.75;4927250;29;20792;-80
2024/03/04 01:47:02;;;;;;;9.77;7.35;;;;;;;7.99;66.85;95418.78;4926640;29;20055;-80
2024/03/04 01:49:31;;;;;;;9.13;6.47;;;;;;;8.03;66.69;95430.38;4926536;29;20488;-78
2024/03/04 01:52:00;;;;;;;8.25;6.38;;;;;;;8.08;67.18;95432.41;4925507;29;20467;-81
2024/03/04 01:54:28;;;;;;;8.55;6.30;;;;;;;8.10;66.53;95430.41;4925681;29;20614;-78
2024/03/04 01:56:57;;;;;;;9.25;6.68;;;;;;;8.05;66.29;95433.59;4925155;29;20083;-82
2024/03/04 01:59:27;;;;;;;9.68;6.82;;;;;;;7.98;66.83;95447.53;4925703;29;20059;-82
2024/03/04 02:01:55;;;;;;;9.27;6.85;;;;;;;7.92;66.60;95449.13;4924448;29;20055;-78
2024/03/04 02:04:23;;;;;;;10.00;6.63;;;;;;;7.86;66.75;95452.50;4923748;29;20052;-78
2024/03/04 02:06:51;;;;;;;11.32;7.30;;;;;;;7.79;67.40;95454.25;4925172;29;20134;-79
2024/03/04 02:09:21;;;;;;;8.40;6.60;;;;;;;7.75;67.73;95453.81;4925625;29;20048;-81
2024/03/04 02:11:49;;;;;;;9.90;7.68;;;;;;;7.74;67.70;95446.22;4927274;29;20044;-81
2024/03/04 02:14:16;;;;;;;10.40;7.60;;;;;;;7.73;67.86;95453.22;4930888;29;20052;-81
2024/03/04 02:16:45;;;;;;;11.00;7.90;;;;;;;7.71;67.91;95452.59;4929602;29;20050;-79
2024/03/04 02:19:15;;;;;;;9.75;7.70;;;;;;;7.74;68.19;95459.19;4929690;29;20086;-80
2024/03/04 02:21:48;;;;;;;10.85;7.25;;;;;;;7.81;68.70;95460.06;4929599;29;20052;-80
2024/03/04 02:24:17;;;;;;;11.05;7.15;;;;;;;7.91;68.08;95462.28;4929457;29;20087;-81
2024/03/04 02:26:45;;;;;;;8.63;6.78;;;;;;;7.98;67.88;95474.31;4922764;29;20084;-81
2024/03/04 02:29:13;;;;;;;12.45;8.13;;;;;;;8.01;67.49;95478.34;4909836;29;20076;-80
2024/03/04 02:31:41;;;;;;;12.70;8.27;;;;;;;8.05;68.05;95487.34;4914025;29;20059;-81
2024/03/04 02:34:09;;;;;;;13.43;8.63;;;;;;;8.07;67.73;95493.16;4926108;29;20504;-79
2024/03/04 02:36:38;;;;;;;14.73;10.43;;;;;;;8.03;67.87;95494.53;4925688;29;20051;-79
2024/03/04 02:39:10;;;;;;;12.75;9.43;;;;;;;7.96;67.64;95494.50;4925523;29;20060;-79
2024/03/04 02:41:40;;;;;;;10.70;8.43;;;;;;;7.90;68.06;95486.66;4926312;29;20492;-80
2024/03/04 02:44:08;;;;;;;13.45;8.70;;;;;;;7.88;68.16;95496.44;4926894;29;20080;-79
2024/03/04 02:46:36;;;;;;;14.90;10.15;;;;;;;7.89;68.16;95491.03;4925117;29;20082;-79
2024/03/04 02:49:04;;;;;;;15.63;11.15;;;;;;;7.93;68.40;95491.47;4925002;29;20048;-81
2024/03/04 02:51:32;;;;;;;12.63;9.40;;;;;;;7.97;68.94;95497.88;4923631;29;20052;-82
2024/03/04 02:53:59;;;;;;;12.57;8.98;;;;;;;8.01;68.74;95502.50;4923339;29;20052;-80
2024/03/04 02:56:27;;;;;;;16.00;10.68;;;;;;;8.06;68.99;95512.31;4922152;29;20047;-81
2024/03/04 02:58:56;;;;;;;13.77;10.00;;;;;;;8.10;69.18;95512.72;4922012;29;20084;-80
2024/03/04 03:01:25;;;;;;;13.90;9.88;;;;;;;8.15;68.69;95520.75;4922410;29;20099;-79
2024/03/04 03:03:53;;;;;;;13.60;10.40;;;;;;;8.18;68.98;95515.97;4921332;29;20054;-79
2024/03/04 03:06:21;;;;;;;16.40;10.95;;;;;;;8.24;68.79;95525.59;4918296;29;20074;-80
2024/03/04 03:08:50;;;;;;;20.83;13.50;;;;;;;8.31;69.18;95524.78;4918905;29;20495;-79
2024/03/04 03:11:18;;;;;;;17.02;12.25;;;;;;;8.33;69.40;95528.84;4917674;29;20051;-79
2024/03/04 03:13:45;;;;;;;18.70;13.15;;;;;;;8.36;69.21;95535.44;4917798;29;20071;-80
2024/03/04 03:16:19;;;;;;;17.50;12.63;;;;;;;8.43;70.01;95533.69;4917172;29;20076;-81
2024/03/04 03:18:48;;;;;;;20.05;12.30;;;;;;;8.48;69.48;95536.50;4927664;29;20246;-85
2024/03/04 03:21:16;;;;;;;20.30;15.02;;;;;;;8.54;69.36;95540.13;4932238;29;20044;-83
2024/03/04 03:23:44;;;;;;;17.83;13.02;;;;;;;8.58;69.49;95549.13;4933336;29;20048;-82
2024/03/04 03:26:12;;;;;;;19.50;13.13;;;;;;;8.64;69.83;95545.75;4928290;29;20047;-82
2024/03/04 03:28:40;;;;;;;19.38;12.70;;;;;;;8.71;69.60;95551.78;4926994;29;20135;-86
2024/03/04 03:31:08;;;;;;;21.83;14.43;;;;;;;8.75;69.86;95555.59;4926736;29;20059;-79
2024/03/04 03:33:38;;;;;;;20.08;13.82;;;;;;;8.76;70.32;95564.19;4925820;29;20048;-86
2024/03/04 03:36:06;;;;;;;21.92;14.27;;;;;;;8.81;69.81;95567.00;4927153;29;20048;-81
2024/03/04 03:38:34;;;;;;;22.23;15.20;;;;;;;8.83;69.96;95567.59;4927667;29;20116;-85
2024/03/04 03:41:02;;;;;;;20.67;14.07;;;;;;;8.77;70.10;95578.81;4927122;29;20476;-84
2024/03/04 03:43:30;;;;;;;21.85;14.70;;;;;;;8.76;70.49;95574.59;4926913;29;20052;-82
2024/03/04 03:45:58;;;;;;;20.48;14.32;;;;;;;8.78;70.71;95578.59;4926727;29;20627;-82
2024/03/04 03:48:26;;;;;;;19.52;13.55;;;;;;;8.78;70.71;95575.19;4925429;29;20056;-81
2024/03/04 03:50:55;;;;;;;19.23;14.00;;;;;;;8.83;71.03;95596.19;4924914;29;20107;-81
2024/03/04 03:53:23;;;;;;;20.08;14.10;;;;;;;8.89;70.71;95597.25;4925982;29;20052;-80
2024/03/04 03:55:51;;;;;;;18.27;12.77;;;;;;;8.94;70.54;95602.66;4924613;29;20052;-80
2024/03/04 03:58:19;;;;;;;22.13;15.95;;;;;;;9.00;70.53;95599.25;4924912;29;20056;-80
2024/03/04 04:00:47;;;;;;;24.52;15.85;;;;;;;9.00;70.42;95597.47;4924808;29;20424;-79
2024/03/04 04:03:14;;;;;;;22.00;15.07;;;;;;;9.00;70.62;95612.28;4924879;29;20067;-80
2024/03/04 04:05:42;;;;;;;22.52;15.65;;;;;;;9.00;70.64;95607.88;4924510;29;20504;-82
2024/03/04 04:08:11;;;;;;;23.88;16.52;;;;;;;8.99;70.80;95606.28;4925628;29;20588;-82
2024/03/04 04:10:38;;;;;;;22.80;16.13;;;;;;;9.00;70.78;95613.06;4927369;29;20131;-81
2024/03/04 04:13:06;;;;;;;21.92;15.65;;;;;;;9.02;70.71;95615.47;4927648;29;20111;-80
2024/03/04 04:15:34;;;;;;;19.80;14.75;;;;;;;9.03;71.13;95620.50;4925593;29;20056;-80
2024/03/04 04:18:02;;;;;;;22.58;15.68;;;;;;;9.00;71.09;95626.06;4928503;29;20504;-83
2024/03/04 04:20:30;;;;;;;21.45;15.52;;;;;;;8.94;71.49;95624.25;4929912;29;20059;-79
2024/03/04 04:22:58;;;;;;;25.65;16.58;;;;;;;8.94;71.51;95626.84;4932567;29;20056;-79
2024/03/04 04:25:26;;;;;;;24.15;15.23;;;;;;;8.98;71.54;95630.66;4934147;29;20077;-83
2024/03/04 04:27:55;;;;;;;20.58;15.35;;;;;;;9.04;71.49;95635.09;4933724;29;20468;-79
2024/03/04 04:30:23;;;;;;;21.33;15.32;;;;;;;9.11;71.38;95634.31;4931509;29;20052;-82
2024/03/04 04:32:51;;;;;;;21.75;15.95;;;;;;;9.16;71.09;95647.53;4930278;29;20044;-80
2024/03/04 04:35:19;;;;;;;21.83;16.00;;;;;;;9.16;70.93;95655.34;4930756;29;20495;-80
2024/03/04 04:37:46;;;;;;;24.70;16.75;;;;;;;9.14;71.09;95662.53;4929660;29;20052;-80
2024/03/04 04:40:18;;;;;;;24.75;16.67;;;;;;;9.13;71.52;95664.34;4929723;29;20427;-80
2024/03/04 04:42:47;;;;;;;24.45;16.55;;;;;;;9.05;71.55;95667.94;4928446;29;20147;-80
2024/03/04 04:45:14;;;;;;;23.20;17.48;;;;;;;8.97;72.00;95670.69;4927730;29;20071;-80
2024/03/04 04:47:42;;;;;;;22.25;16.15;;;;;;;8.94;72.09;95670.25;4926372;29;20056;-79
2024/03/04 04:50:12;;;;;;;21.90;16.27;;;;;;;8.93;72.23;95682.47;4926145;29;20423;-83
2024/03/04 04:52:39;;;;;;;24.73;17.27;;;;;;;8.96;72.40;95682.06;4926561;29;20048;-80
2024/03/04 04:55:08;;;;;;;20.60;15.23;;;;;;;8.99;72.23;95688.72;4924349;29;20071;-81
2024/03/04 04:57:35;;;;;;;26.63;17.92;;;;;;;8.99;72.08;95693.91;4925779;29;20496;-79
2024/03/04 05:00:08;;;;;;;23.23;16.88;;;;;;;8.98;72.64;95687.09;4924933;29;20083;-86
2024/03/04 05:02:36;;;;;;;24.38;16.00;;;;;;;8.97;72.25;95691.50;4924724;29;20488;-84
2024/03/04 05:05:04;;;;;;;25.63;17.15;;;;;;;8.97;72.43;95688.91;4925740;29;20265;-86
2024/03/04 05:07:32;;;;;;;32.60;20.00;;;;;;;8.97;72.59;95695.91;4932050;29;20142;-82
2024/03/04 05:09:59;;;;;;;24.55;17.65;;;;;;;8.97;72.76;95695.91;4933256;29;20052;-85
2024/03/04 05:12:27;;;;;;;28.77;19.85;;;;;;;8.98;72.55;95689.69;4933148;29;20086;-86
2024/03/04 05:14:54;;;;;;;28.63;18.85;;;;;;;8.95;72.71;95698.69;4933214;29;20124;-84
2024/03/04 05:17:24;;;;;;;31.65;18.92;;;;;;;8.91;73.06;95700.06;4932745;29;20135;-80
2024/03/04 05:19:51;;;;;;;32.75;21.02;;;;;;;8.90;73.09;95705.47;4933006;29;20575;-85
2024/03/04 05:22:19;;;;;;;31.77;18.85;;;;;;;8.90;73.53;95705.47;4934006;29;20044;-83
2024/03/04 05:24:47;;;;;;;31.83;19.77;;;;;;;8.94;73.36;95709.28;4933951;29;20048;-82
2024/03/04 05:27:14;;;;;;;28.80;19.70;;;;;;;8.98;73.20;95711.31;4932074;29;20084;-79
2024/03/04 05:29:42;;;;;;;28.30;19.40;;;;;;;8.99;73.19;95720.72;4931774;29;20124;-85
2024/03/04 05:32:10;;;;;;;29.23;19.85;;;;;;;8.99;73.16;95722.53;4931170;29;20055;-80
2024/03/04 05:34:42;;;;;;;28.40;20.10;;;;;;;8.99;73.35;95733.72;4931460;29;20044;-79
2024/03/04 05:37:10;;;;;;;26.00;19.25;;;;;;;9.02;73.47;95730.72;4931791;29;20139;-81
2024/03/04 05:39:38;;;;;;;27.15;19.15;;;;;;;9.08;73.31;95732.56;4931980;29;20139;-82
2024/03/04 05:42:06;;;;;;;31.63;21.70;;;;;;;9.10;73.09;95727.19;4931370;29;20083;-81
2024/03/04 05:44:33;;;;;;;30.40;20.23;;;;;;;9.10;73.28;95736.78;4931061;29;20052;-82
2024/03/04 05:47:01;;;;;;;29.10;20.25;;;;;;;9.14;73.00;95737.97;4930945;29;20052;-79
2024/03/04 05:49:29;;;;;;;34.20;20.52;;;;;;;9.15;72.84;95739.59;4931374;29;20048;-79
2024/03/04 05:51:59;;;;;;;33.05;21.63;;;;;;;9.10;73.18;95747.19;4931233;29;20076;-80
2024/03/04 05:54:26;;;;;;;29.45;19.85;;;;;;;9.08;73.14;95745.56;4930939;29;20059;-81
2024/03/04 05:56:54;;;;;;;28.73;20.15;;;;;;;9.11;73.12;95749.59;4930816;29;20056;-81
2024/03/04 05:59:22;;;;;;;31.90;20.92;;;;;;;9.15;73.00;95756.00;4930477;29;20060;-80
2024/03/04 06:01:50;;;;;;;35.67;22.65;;;;;;;9.14;72.78;95757.03;4930697;29;20077;-81
2024/03/04 06:04:18;;;;;;;32.40;20.95;;;;;;;9.01;73.53;95755.16;4929899;29;20576;-82
2024/03/04 06:06:46;;;;;;;33.40;22.60;;;;;;;8.96;73.66;95757.50;4929069;29;20052;-80
2024/03/04 06:09:16;;;;;;;32.45;21.48;;;;;;;8.93;73.95;95757.91;4929334;29;20539;-81
2024/03/04 06:11:44;;;;;;;32.95;20.85;;;;;;;9.00;73.83;95752.72;4927706;29;20052;-83
2024/03/04 06:14:12;;;;;;;34.03;22.40;;;;;;;9.01;73.68;95749.16;4926461;29;20119;-83
2024/03/04 06:16:39;;;;;;;34.22;21.55;;;;;;;9.03;73.65;95760.97;4926364;29;20064;-85
2024/03/04 06:19:07;;;;;;;34.15;22.77;;;;;;;9.08;73.81;95763.78;4925616;29;20059;-80
2024/03/04 06:21:36;;;;;;;33.47;22.95;;;;;;;9.10;73.57;95768.81;4926222;29;20056;-80
2024/03/04 06:24:03;;;;;;;33.55;21.40;;;;;;;9.07;73.65;95764.78;4925640;29;20048;-80
2024/03/04 06:26:32;;;;;;;33.50;22.08;;;;;;;9.07;73.74;95770.00;4928190;29;20048;-81
2024/03/04 06:29:00;;;;;;;35.50;23.48;;;;;;;9.06;73.55;95772.78;4927676;29;20052;-81
2024/03/04 06:31:27;;;;;;;35.38;23.77;;;;;;;9.05;73.39;95773.75;4926212;29;20048;-80
2024/03/04 06:33:55;;;;;;;35.55;23.42;;;;;;;9.04;73.28;95772.97;4925753;29;20588;-81
2024/03/04 06:36:23;;;;;;;32.75;22.40;;;;;;;9.03;73.57;95779.19;4926146;29;20059;-79
2024/03/04 06:38:51;;;;;;;37.40;23.77;;;;;;;9.07;73.36;95780.41;4925506;29;20513;-80
2024/03/04 06:41:18;;;;;;;33.38;23.50;;;;;;;9.13;73.01;95778.81;4924686;29;20090;-84
2024/03/04 06:43:47;;;;;;;38.25;24.38;;;;;;;9.18;72.95;95788.63;4924888;29;20052;-79
2024/03/04 06:46:15;;;;;;;37.00;24.00;;;;;;;9.16;73.17;95790.63;4925052;29;20091;-83
2024/03/04 06:48:43;;;;;;;36.50;23.17;;;;;;;9.16;73.40;95803.63;4924680;29;20689;-79
2024/03/04 06:51:11;;;;;;;35.63;23.77;;;;;;;9.20;73.32;95799.66;4924614;29;20052;-79
2024/03/04 06:53:39;;;;;;;37.08;23.48;;;;;;;9.27;73.12;95803.09;4925720;29;20536;-83
2024/03/04 06:56:08;;;;;;;32.60;21.92;;;;;;;9.32;73.30;95802.53;4924777;29;20516;-80
2024/03/04 06:58:36;;;;;;;31.60;21.95;;;;;;;9.35;73.21;95810.75;4925282;29;20508;-79
2024/03/04 07:01:05;;;;;;;39.70;24.42;;;;;;;9.35;72.75;95810.75;4923914;29;20535;-82
2024/03/04 07:03:34;;;;;;;34.42;23.65;;;;;;;9.30;72.69;95812.34;4938866;23;20135;-79
2024/03/04 07:06:02;;;;;;;32.45;21.67;;;;;;;9.26;72.92;95815.31;4899161;29;20577;-79
2024/03/04 07:08:31;;;;;;;36.08;22.50;;;;;;;9.24;72.75;95816.50;4898960;29;20048;-80
2024/03/04 07:11:00;;;;;;;38.72;25.23;;;;;;;9.22;72.55;95815.88;4899748;29;20060;-79
2024/03/04 07:13:28;;;;;;;34.30;22.60;;;;;;;9.25;73.08;95823.34;4898906;29;20048;-79
2024/03/04 07:15:58;;;;;;;32.75;21.80;;;;;;;9.28;73.18;95828.94;4899483;29;20063;-80
2024/03/04 07:18:31;;;;;;;32.88;21.75;;;;;;;9.32;72.97;95818.94;4899166;29;20053;-80
2024/03/04 07:20:59;;;;;;;34.88;23.23;;;;;;;9.33;72.67;95820.53;4899271;29;20123;-79
2024/03/04 07:23:30;;;;;;;39.10;22.45;;;;;;;9.33;72.52;95825.75;4899072;29;20048;-79
2024/03/04 07:25:58;;;;;;;32.78;22.65;;;;;;;9.34;72.66;95821.38;4905025;29;20064;-80
2024/03/04 07:28:41;;;;;;;39.45;23.15;;;;;;;9.35;72.46;95828.97;4907531;29;20540;-81
2024/03/04 07:31:11;;;;;;;33.28;22.48;;;;;;;9.36;72.55;95828.00;4906635;29;20032;-80
2024/03/04 07:33:58;;;;;;;37.53;24.40;;;;;;;9.35;72.21;95833.38;4905667;29;20552;-79
2024/03/04 07:36:26;;;;;;;37.92;23.45;;;;;;;9.33;72.51;95843.97;4898873;29;20496;-80
2024/03/04 07:38:53;;;;;;;34.17;22.73;;;;;;;9.36;72.75;95847.97;4901580;29;20103;-79
2024/03/04 07:41:21;;;;;;;36.60;23.20;;;;;;;9.38;72.33;95849.41;4898904;29;20544;-81
2024/03/04 07:43:48;;;;;;;38.60;24.38;;;;;;;9.35;72.28;95855.00;4896793;29;20060;-82
2024/03/04 07:46:16;;;;;;;37.55;24.13;;;;;;;9.31;72.43;95861.56;4907503;29;20054;-82
2024/03/04 07:48:44;;;;;;;37.22;21.92;;;;;;;9.30;72.68;95862.59;4900281;29;20056;-81
2024/03/04 07:51:13;;;;;;;35.95;24.63;;;;;;;9.32;72.98;95865.81;4909445;29;20052;-82
2024/03/04 07:53:40;;;;;;;37.13;23.13;;;;;;;9.36;72.86;95869.63;4911457;29;20052;-82
2024/03/04 07:56:09;;;;;;;43.08;24.13;;;;;;;9.33;72.53;95870.00;4906875;29;20105;-82
2024/03/04 07:58:37;;;;;;;38.55;24.63;;;;;;;9.28;72.69;95874.97;4904448;29;20477;-83
2024/03/04 08:01:05;;;;;;;37.55;24.60;;;;;;;9.21;72.94;95874.16;4898005;29;20060;-80
2024/03/04 08:03:33;;;;;;;35.72;22.98;;;;;;;9.26;73.05;95882.19;4897984;29;20505;-82
2024/03/04 08:06:01;;;;;;;35.40;23.38;;;;;;;9.22;72.85;95879.13;4900652;29;20139;-82
2024/03/04 08:08:30;;;;;;;39.50;24.17;;;;;;;9.21;73.24;95887.94;4901424;29;20576;-82
2024/03/04 08:10:58;;;;;;;37.85;23.35;;;;;;;9.19;73.08;95886.53;4901263;29;20060;-83
2024/03/04 08:13:26;;;;;;;39.00;25.48;;;;;;;9.18;73.37;95896.16;4905016;29;20513;-82
2024/03/04 08:15:54;;;;;;;36.97;23.42;;;;;;;9.17;73.09;95897.13;4913521;29;20093;-82
2024/03/04 08:18:22;;;;;;;37.25;24.65;;;;;;;9.19;73.34;95908.16;4901718;29;20108;-82
2024/03/04 08:20:52;;;;;;;37.58;24.83;;;;;;;9.22;73.13;95912.16;4902848;29;20052;-82
2024/03/04 08:23:19;;;;;;;35.55;23.05;;;;;;;9.23;73.23;95913.78;4907444;29;20064;-83
2024/03/04 08:25:49;;;;;;;38.30;24.70;;;;;;;9.28;73.13;95914.81;4918317;29;20052;-81
2024/03/04 08:28:16;;;;;;;37.42;24.38;;;;;;;9.30;73.00;95925.03;4905088;29;20048;-80
2024/03/04 08:30:58;;;;;;;38.50;23.52;;;;;;;9.35;72.96;95927.88;4904587;29;20500;-81
2024/03/04 08:33:26;;;;;;;37.22;22.95;;;;;;;9.35;72.84;95922.66;4911095;29;20059;-80
2024/03/04 08:35:53;;;;;;;34.65;22.58;;;;;;;9.33;72.64;95919.44;4904466;29;20095;-81
2024/03/04 08:38:21;;;;;;;36.03;24.08;;;;;;;9.30;72.56;95919.84;4899765;29;20109;-80
2024/03/04 08:40:50;;;;;;;41.60;26.30;;;;;;;9.26;72.58;95929.81;4900102;29;20048;-80
2024/03/04 08:43:17;;;;;;;37.15;25.38;;;;;;;9.19;72.81;95922.97;4901193;29;20186;-80
2024/03/04 08:45:45;;;;;;;39.85;24.90;;;;;;;9.18;72.90;95924.78;4905716;29;20095;-80
2024/03/04 08:48:13;;;;;;;37.70;23.60;;;;;;;9.18;73.07;95926.56;4910392;29;20135;-80
2024/03/04 08:50:40;;;;;;;38.95;25.75;;;;;;;9.19;73.23;95920.38;4903629;29;20060;-80
2024/03/04 08:53:08;;;;;;;39.58;23.98;;;;;;;9.21;73.07;95926.19;4916808;29;20046;-80
2024/03/04 08:55:35;;;;;;;39.35;24.95;;;;;;;9.20;73.13;95919.34;4914453;29;20465;-80
2024/03/04 08:58:05;;;;;;;38.88;24.73;;;;;;;9.18;73.28;95929.16;4907452;29;20075;-77
2024/03/04 09:00:33;;;;;;;39.45;25.35;;;;;;;9.20;73.31;95921.97;4888536;29;20056;-78
2024/03/04 09:03:00;;;;;;;43.35;25.40;;;;;;;9.23;73.03;95932.00;4900480;29;20136;-78
2024/03/04 09:05:28;;;;;;;38.05;24.73;;;;;;;9.25;73.25;95932.63;4917968;29;20096;-79
2024/03/04 09:07:55;;;;;;;39.10;23.35;;;;;;;9.24;73.04;95937.00;4903817;29;20040;-77
2024/03/04 09:10:25;;;;;;;40.08;23.25;;;;;;;9.24;73.54;95941.41;4918157;29;20070;-75
2024/03/04 09:12:53;;;;;;;41.05;24.23;;;;;;;9.26;73.19;95944.63;4902098;29;20068;-80
2024/03/04 09:15:23;;;;;;;41.47;24.38;;;;;;;9.31;73.42;95944.06;4900013;29;20657;-80
2024/03/04 09:17:50;;;;;;;41.03;24.88;;;;;;;9.33;73.13;95940.28;4915170;29;20063;-79
2024/03/04 09:20:18;;;;;;;45.08;26.30;;;;;;;9.39;72.99;95942.13;4911175;29;20052;-79
2024/03/04 09:22:46;;;;;;;46.22;27.45;;;;;;;9.43;72.84;95945.94;4917813;29;20052;-79
2024/03/04 09:25:14;;;;;;;45.60;27.40;;;;;;;9.44;72.52;95952.75;4903252;29;20052;-79
2024/03/04 09:27:43;;;;;;;39.30;23.65;;;;;;;9.41;72.57;95953.16;4901205;29;20086;-79
2024/03/04 09:30:11;;;;;;;39.28;24.35;;;;;;;9.41;72.63;95947.16;4896611;29;20061;-79
2024/03/04 09:32:40;;;;;;;40.60;25.77;;;;;;;9.43;72.55;95950.38;4917182;29;20119;-77
2024/03/04 09:35:08;;;;;;;44.30;24.58;;;;;;;9.43;72.80;95955.56;4906973;29;20048;-79
2024/03/04 09:37:36;;;;;;;40.28;24.70;;;;;;;9.45;72.62;95959.59;4912045;29;20079;-80
2024/03/04 09:40:04;;;;;;;40.28;23.70;;;;;;;9.48;72.44;95958.41;4910029;29;20139;-80
2024/03/04 09:42:34;;;;;;;44.47;27.50;;;;;;;9.46;72.45;95966.38;4899476;29;20084;-80
2024/03/04 09:45:03;;;;;;;40.28;24.85;;;;;;;9.46;72.47;95963.78;4898092;29;20049;-79
2024/03/04 09:47:31;;;;;;;40.95;24.77;;;;;;;9.46;72.54;95966.38;4917137;29;20547;-77
2024/03/04 09:50:00;;;;;;;35.42;23.20;;;;;;;9.49;72.53;95971.22;4914033;29;20622;-80
2024/03/04 09:52:29;;;;;;;39.15;24.08;;;;;;;9.51;72.38;95972.81;4902387;29;20056;-80
2024/03/04 09:54:57;;;;;;;40.28;24.08;;;;;;;9.49;72.34;95973.03;4915380;29;20070;-79
2024/03/04 09:57:29;;;;;;;39.10;25.35;;;;;;;9.48;72.44;95980.03;4925551;29;20121;-81
2024/03/04 09:59:58;;;;;;;40.55;24.02;;;;;;;9.48;72.20;95976.63;4918243;29;20048;-80
2024/03/04 10:02:26;;;;;;;42.38;25.63;;;;;;;9.46;72.08;95971.59;4908326;29;20091;-80
2024/03/04 10:04:54;;;;;;;39.72;23.85;;;;;;;9.47;72.10;95983.63;4916632;29;20084;-81
2024/03/04 10:07:23;;;;;;;44.10;26.65;;;;;;;9.45;72.00;95983.00;4902541;29;20520;-80
2024/03/04 10:09:54;;;;;;;37.92;23.75;;;;;;;9.44;72.24;95983.19;4898277;29;20147;-80
2024/03/04 10:12:22;;;;;;;46.83;26.42;;;;;;;9.44;72.01;95989.19;4898303;29;20116;-80
2024/03/04 10:15:06;;;;;;;44.13;24.85;;;;;;;9.42;72.48;95985.19;4898437;29;20048;-77
2024/03/04 10:17:34;;;;;;;47.50;25.95;;;;;;;9.37;72.29;95998.78;4909440;29;20060;-77
2024/03/04 10:20:03;;;;;;;49.90;27.42;;;;;;;9.35;72.52;96002.56;4917447;29;20060;-78
2024/03/04 10:22:36;;;;;;;42.67;26.20;;;;;;;9.34;72.63;95999.16;4915946;29;20059;-77
2024/03/04 10:25:05;;;;;;;44.17;25.58;;;;;;;9.38;72.80;96003.00;4913218;29;20051;-78
2024/03/04 10:27:33;;;;;;;46.42;26.48;;;;;;;9.42;72.70;96001.63;4907254;29;20135;-78
2024/03/04 10:30:12;;;;;;;49.88;27.40;;;;;;;9.45;72.92;95997.84;4917336;29;20402;-78
2024/03/04 10:32:45;;;;;;;42.30;25.42;;;;;;;9.46;72.86;95999.44;4910338;29;20124;-80
2024/03/04 10:35:13;;;;;;;47.83;27.23;;;;;;;9.46;72.56;96000.22;4897400;29;20486;-80
2024/03/04 10:37:42;;;;;;;46.47;25.58;;;;;;;9.46;72.63;96000.22;4903507;29;20099;-80
2024/03/04 10:40:11;;;;;;;47.55;26.15;;;;;;;9.48;72.72;95995.66;4916468;29;20075;-80
2024/03/04 10:42:40;;;;;;;44.28;27.35;;;;;;;9.53;72.71;96002.09;4915076;29;20063;-80
2024/03/04 10:45:09;;;;;;;47.47;27.65;;;;;;;9.57;72.67;96005.91;4910872;29;20044;-80
2024/03/04 10:47:36;;;;;;;50.58;27.58;;;;;;;9.61;72.70;95999.34;4897506;29;20095;-80
2024/03/04 10:50:07;;;;;;;44.28;26.92;;;;;;;9.62;72.63;96000.94;4902395;29;20080;-80
2024/03/04 10:52:35;;;;;;;48.92;26.67;;;;;;;9.65;72.64;96006.59;4903254;29;20056;-80
2024/03/04 10:55:04;;;;;;;44.38;26.33;;;;;;;9.66;72.45;95996.97;4915848;29;20056;-79
2024/03/04 10:57:33;;;;;;;46.22;27.02;;;;;;;9.68;72.31;96006.19;4900861;29;20053;-80
2024/03/04 11:00:10;;;;;;;41.55;24.73;;;;;;;9.74;73.00;96014.25;4897799;29;20497;-80
2024/03/04 11:02:43;;;;;;;42.60;25.45;;;;;;;9.76;72.56;96007.84;4882730;29;20552;-80
2024/03/04 11:05:11;;;;;;;45.72;24.77;;;;;;;9.78;72.24;96010.28;4912597;29;20053;-80
2024/03/04 11:07:43;;;;;;;47.17;25.70;;;;;;;9.80;72.41;96010.91;4897264;29;20049;-79
2024/03/04 11:10:19;;;;;;;44.33;25.55;;;;;;;9.80;72.40;96009.09;4896309;29;20105;-80
2024/03/04 11:12:53;;;;;;;42.47;23.50;;;;;;;9.81;72.35;96002.88;4899939;29;20063;-81
2024/03/04 11:15:24;;;;;;;40.55;24.05;;;;;;;9.80;72.33;96001.28;4913801;29;20604;-82
2024/03/04 11:17:56;;;;;;;41.17;21.83;;;;;;;9.79;72.44;96002.25;4898722;29;20140;-82
2024/03/04 11:20:27;;;;;;;39.60;22.92;;;;;;;9.80;72.44;96005.69;4898294;29;20059;-78
2024/03/04 11:22:54;;;;;;;38.53;22.75;;;;;;;9.84;72.60;95999.91;4902294;29;20044;-81
2024/03/04 11:25:24;;;;;;;42.15;22.85;;;;;;;9.86;72.52;96003.13;4897178;29;20095;-81
2024/03/04 11:27:52;;;;;;;40.63;23.27;;;;;;;9.89;72.56;95994.13;4903847;29;20123;-81
2024/03/04 11:30:22;;;;;;;42.95;22.90;;;;;;;9.92;72.52;96006.75;4918712;29;20053;-80
2024/03/04 11:32:49;;;;;;;36.13;20.88;;;;;;;9.93;72.82;96002.31;4931272;29;20517;-80
2024/03/04 11:35:26;;;;;;;38.88;22.38;;;;;;;9.94;72.46;96004.75;4897786;29;20048;-79